createdAt,value
2017-01-19T00:00:14.745Z,0
2017-01-19T00:01:24.246Z,0
2017-01-19T00:02:33.738Z,0
2017-01-19T00:03:44.027Z,0
2017-01-19T00:04:53.516Z,0
2017-01-19T00:06:03.803Z,0
2017-01-19T00:07:14.081Z,0
2017-01-19T00:08:23.575Z,0
2017-01-19T00:09:33.872Z,0
2017-01-19T00:10:44.156Z,0
2017-01-19T00:11:53.269Z,0
2017-01-19T00:13:03.165Z,0
2017-01-19T00:14:12.670Z,0
2017-01-19T00:15:21.769Z,0
2017-01-19T00:16:31.261Z,0
2017-01-19T00:17:40.375Z,0
2017-01-19T00:18:51.161Z,0
2017-01-19T00:20:01.073Z,0
2017-01-19T00:21:11.355Z,0
2017-01-19T00:22:21.245Z,0
2017-01-19T00:23:31.534Z,0
2017-01-19T00:24:41.674Z,0
2017-01-19T00:25:51.562Z,0
2017-01-19T00:27:01.461Z,0
2017-01-19T00:28:11.752Z,0
2017-01-19T00:29:21.640Z,0
2017-01-19T00:30:31.538Z,0
2017-01-19T00:31:41.867Z,0
2017-01-19T00:32:51.363Z,0
2017-01-19T00:34:01.252Z,0
2017-01-19T00:35:10.752Z,0
2017-01-19T00:36:20.639Z,0
2017-01-19T00:37:30.937Z,0
2017-01-19T00:38:41.228Z,0
2017-01-19T00:39:50.725Z,0
2017-01-19T00:41:00.233Z,0
2017-01-19T00:42:10.130Z,0
2017-01-19T00:43:20.013Z,0
2017-01-19T00:44:30.298Z,0
2017-01-19T00:45:40.186Z,0
2017-01-19T00:46:50.091Z,0
2017-01-19T00:47:59.999Z,0
2017-01-19T00:49:09.909Z,0
2017-01-19T00:50:20.425Z,0
2017-01-19T00:51:30.313Z,0
2017-01-19T00:52:40.214Z,0
2017-01-19T00:53:50.891Z,0
2017-01-19T00:55:01.179Z,0
2017-01-19T00:56:11.882Z,0
2017-01-19T00:57:22.561Z,0
2017-01-19T00:58:32.447Z,0
2017-01-19T00:59:42.344Z,0
2017-01-19T01:00:52.261Z,0
2017-01-19T01:02:02.568Z,0
2017-01-19T01:03:12.846Z,0
2017-01-19T01:04:23.522Z,0
2017-01-19T01:05:33.805Z,0
2017-01-19T01:06:42.960Z,0
2017-01-19T01:07:53.992Z,0
2017-01-19T01:09:03.488Z,0
2017-01-19T01:10:13.374Z,0
2017-01-19T01:11:23.279Z,0
2017-01-19T01:12:33.177Z,0
2017-01-19T01:13:43.474Z,0
2017-01-19T01:14:52.974Z,0
2017-01-19T01:16:02.474Z,0
2017-01-19T01:17:12.360Z,0
2017-01-19T01:18:22.635Z,0
2017-01-19T01:19:32.920Z,0
2017-01-19T01:20:42.806Z,0
2017-01-19T01:21:52.691Z,0
2017-01-19T01:23:02.585Z,0
2017-01-19T01:24:12.873Z,0
2017-01-19T01:25:23.159Z,0
2017-01-19T01:26:33.045Z,0
2017-01-19T01:27:42.550Z,0
2017-01-19T01:28:52.838Z,0
2017-01-19T01:30:03.507Z,0
2017-01-19T01:31:13.398Z,0
2017-01-19T01:32:22.896Z,0
2017-01-19T01:33:32.792Z,0
2017-01-19T01:34:43.502Z,0
2017-01-19T01:35:53.389Z,0
2017-01-19T01:37:02.877Z,0
2017-01-19T01:38:12.373Z,0
2017-01-19T01:39:22.265Z,0
2017-01-19T01:40:32.550Z,0
2017-01-19T01:41:42.845Z,0
2017-01-19T01:42:52.729Z,0
2017-01-19T01:44:02.615Z,0
2017-01-19T01:45:12.500Z,0
2017-01-19T01:46:22.387Z,0
2017-01-19T01:47:32.278Z,0
2017-01-19T01:48:42.563Z,0
2017-01-19T01:49:52.870Z,0
2017-01-19T01:51:02.764Z,0
2017-01-19T01:52:13.040Z,0
2017-01-19T01:53:22.927Z,0
2017-01-19T01:54:33.216Z,0
2017-01-19T01:55:42.710Z,0
2017-01-19T01:56:53.005Z,0
2017-01-19T01:58:03.681Z,0
2017-01-19T01:59:13.208Z,0
2017-01-19T02:00:23.101Z,0
2017-01-19T02:01:33.391Z,0
2017-01-19T02:02:43.666Z,0
2017-01-19T02:03:52.766Z,0
2017-01-19T02:05:03.051Z,0
2017-01-19T02:06:12.948Z,0
2017-01-19T02:07:22.835Z,0
2017-01-19T02:08:32.741Z,0
2017-01-19T02:09:42.634Z,0
2017-01-19T02:10:52.926Z,0
2017-01-19T02:12:02.028Z,0
2017-01-19T02:13:12.706Z,0
2017-01-19T02:14:22.988Z,0
2017-01-19T02:15:32.488Z,0
2017-01-19T02:16:42.023Z,0
2017-01-19T02:17:52.334Z,0
2017-01-19T02:19:02.238Z,0
2017-01-19T02:20:12.912Z,0
2017-01-19T02:21:22.823Z,0
2017-01-19T02:22:32.331Z,0
2017-01-19T02:23:42.624Z,0
2017-01-19T02:24:52.912Z,0
2017-01-19T02:26:02.808Z,0
2017-01-19T02:27:12.699Z,0
2017-01-19T02:28:23.375Z,0
2017-01-19T02:29:32.879Z,0
2017-01-19T02:30:43.560Z,0
2017-01-19T02:31:53.062Z,0
2017-01-19T02:33:02.172Z,0
2017-01-19T02:34:12.848Z,0
2017-01-19T02:35:22.741Z,0
2017-01-19T02:36:32.630Z,0
2017-01-19T02:37:42.913Z,0
2017-01-19T02:38:52.802Z,0
2017-01-19T02:40:03.492Z,0
2017-01-19T02:41:14.177Z,0
2017-01-19T02:42:24.062Z,0
2017-01-19T02:43:34.372Z,0
2017-01-19T02:44:44.654Z,0
2017-01-19T02:45:54.548Z,0
2017-01-19T02:47:04.831Z,0
2017-01-19T02:48:15.505Z,0
2017-01-19T02:49:25.399Z,0
2017-01-19T02:50:35.288Z,0
2017-01-19T02:51:45.565Z,0
2017-01-19T02:52:55.464Z,0
2017-01-19T02:54:05.746Z,0
2017-01-19T02:55:15.644Z,0
2017-01-19T02:56:26.332Z,0
2017-01-19T02:57:35.820Z,0
2017-01-19T02:58:46.104Z,0
2017-01-19T02:59:56.393Z,0
2017-01-19T03:01:06.285Z,0
2017-01-19T03:02:16.171Z,0
2017-01-19T03:03:26.071Z,0
2017-01-19T03:04:36.755Z,0
2017-01-19T03:05:47.430Z,0
2017-01-19T03:06:56.926Z,0
2017-01-19T03:08:06.824Z,0
2017-01-19T03:09:17.502Z,0
2017-01-19T03:10:27.787Z,0
2017-01-19T03:11:38.458Z,0
2017-01-19T03:12:47.954Z,0
2017-01-19T03:13:57.053Z,0
2017-01-19T03:15:06.941Z,0
2017-01-19T03:16:16.832Z,0
2017-01-19T03:17:27.119Z,0
2017-01-19T03:18:36.611Z,0
2017-01-19T03:19:46.887Z,0
2017-01-19T03:20:56.775Z,0
2017-01-19T03:22:07.058Z,0
2017-01-19T03:23:16.943Z,0
2017-01-19T03:24:27.612Z,0
2017-01-19T03:25:37.508Z,0
2017-01-19T03:26:47.007Z,0
2017-01-19T03:27:57.683Z,0
2017-01-19T03:29:07.975Z,0
2017-01-19T03:30:17.862Z,0
2017-01-19T03:31:28.144Z,0
2017-01-19T03:32:38.036Z,0
2017-01-19T03:33:47.529Z,0
2017-01-19T03:34:58.221Z,0
2017-01-19T03:36:08.100Z,0
2017-01-19T03:37:17.985Z,0
2017-01-19T03:38:27.493Z,0
2017-01-19T03:39:37.778Z,0
2017-01-19T03:40:47.271Z,0
2017-01-19T03:41:57.161Z,0
2017-01-19T03:43:07.439Z,0
2017-01-19T03:44:17.718Z,0
2017-01-19T03:45:27.601Z,0
2017-01-19T03:46:37.107Z,0
2017-01-19T03:47:47.006Z,0
2017-01-19T03:48:57.291Z,0
2017-01-19T03:50:07.181Z,0
2017-01-19T03:51:17.459Z,0
2017-01-19T03:52:28.157Z,0
2017-01-19T03:53:38.053Z,0
2017-01-19T03:54:47.551Z,0
2017-01-19T03:55:57.430Z,0
2017-01-19T03:57:07.325Z,0
2017-01-19T03:58:16.429Z,0
2017-01-19T03:59:25.938Z,0
2017-01-19T04:00:35.441Z,0
2017-01-19T04:01:44.927Z,0
2017-01-19T04:02:55.201Z,0
2017-01-19T04:04:05.483Z,0
2017-01-19T04:05:16.413Z,0
2017-01-19T04:06:26.705Z,0
2017-01-19T04:07:35.409Z,0
2017-01-19T04:08:45.308Z,0
2017-01-19T04:09:55.205Z,0
2017-01-19T04:11:05.502Z,0
2017-01-19T04:12:14.609Z,0
2017-01-19T04:13:24.093Z,0
2017-01-19T04:14:33.583Z,0
2017-01-19T04:15:43.466Z,0
2017-01-19T04:16:53.355Z,0
2017-01-19T04:18:02.850Z,0
2017-01-19T04:19:13.135Z,0
2017-01-19T04:20:23.053Z,0
2017-01-19T04:21:33.749Z,0
2017-01-19T04:22:44.041Z,0
2017-01-19T04:23:53.140Z,0
2017-01-19T04:25:02.633Z,0
2017-01-19T04:26:13.310Z,0
2017-01-19T04:27:23.980Z,0
2017-01-19T04:28:34.279Z,0
2017-01-19T04:29:43.781Z,0
2017-01-19T04:30:53.661Z,0
2017-01-19T04:32:03.553Z,0
2017-01-19T04:33:12.667Z,0
2017-01-19T04:34:22.163Z,0
2017-01-19T04:35:32.445Z,0
2017-01-19T04:36:42.324Z,0
2017-01-19T04:37:53.008Z,0
2017-01-19T04:39:03.686Z,0
2017-01-19T04:40:13.571Z,0
2017-01-19T04:41:24.254Z,0
2017-01-19T04:42:34.945Z,0
2017-01-19T04:43:44.050Z,0
2017-01-19T04:44:53.950Z,0
2017-01-19T04:46:03.845Z,0
2017-01-19T04:47:13.729Z,0
2017-01-19T04:48:23.612Z,0
2017-01-19T04:49:32.715Z,0
2017-01-19T04:50:43.394Z,0
2017-01-19T04:51:53.278Z,0
2017-01-19T04:53:03.959Z,0
2017-01-19T04:54:13.885Z,0
2017-01-19T04:55:22.990Z,0
2017-01-19T04:56:32.888Z,0
2017-01-19T04:57:43.571Z,0
2017-01-19T04:58:54.256Z,0
2017-01-19T05:00:04.539Z,0
2017-01-19T05:01:14.816Z,0
2017-01-19T05:02:25.504Z,0
2017-01-19T05:03:35.387Z,0
2017-01-19T05:04:45.693Z,0
2017-01-19T05:05:55.984Z,0
2017-01-19T05:07:05.898Z,0
2017-01-19T05:08:15.793Z,0
2017-01-19T05:09:25.693Z,0
2017-01-19T05:10:35.578Z,0
2017-01-19T05:11:45.473Z,0
2017-01-19T05:12:55.362Z,0
2017-01-19T05:14:04.851Z,0
2017-01-19T05:15:14.762Z,0
2017-01-19T05:16:24.252Z,0
2017-01-19T05:17:34.136Z,0
2017-01-19T05:18:44.033Z,0
2017-01-19T05:19:53.920Z,0
2017-01-19T05:21:03.418Z,0
2017-01-19T05:22:13.710Z,0
2017-01-19T05:23:24.398Z,0
2017-01-19T05:24:33.512Z,0
2017-01-19T05:25:44.195Z,0
2017-01-19T05:26:53.687Z,0
2017-01-19T05:28:04.382Z,0
2017-01-19T05:29:14.679Z,0
2017-01-19T05:30:24.563Z,0
2017-01-19T05:31:34.475Z,0
2017-01-19T05:32:45.156Z,0
2017-01-19T05:33:55.553Z,0
2017-01-19T05:35:05.842Z,0
2017-01-19T05:36:15.740Z,0
2017-01-19T05:37:25.624Z,0
2017-01-19T05:38:35.521Z,0
2017-01-19T05:39:45.020Z,0
2017-01-19T05:40:54.517Z,0
2017-01-19T05:42:04.811Z,0
2017-01-19T05:43:15.493Z,0
2017-01-19T05:44:25.791Z,0
2017-01-19T05:45:35.679Z,0
2017-01-19T05:46:45.184Z,0
2017-01-19T05:47:55.116Z,0
2017-01-19T05:49:04.612Z,0
2017-01-19T05:50:14.894Z,0
2017-01-19T05:51:24.779Z,0
2017-01-19T05:52:35.062Z,0
2017-01-19T05:53:44.550Z,0
2017-01-19T05:54:54.515Z,0
2017-01-19T05:56:04.012Z,0
2017-01-19T05:57:14.689Z,0
2017-01-19T05:58:25.014Z,0
2017-01-19T05:59:35.328Z,0
2017-01-19T06:00:45.617Z,0
2017-01-19T06:01:55.897Z,0
2017-01-19T06:03:06.196Z,0
2017-01-19T06:04:16.083Z,0
2017-01-19T06:05:26.370Z,0
2017-01-19T06:06:35.883Z,0
2017-01-19T06:07:45.773Z,0
2017-01-19T06:08:55.663Z,0
2017-01-19T06:10:05.544Z,0
2017-01-19T06:11:15.852Z,0
2017-01-19T06:12:26.137Z,0
2017-01-19T06:13:36.822Z,0
2017-01-19T06:14:47.107Z,0
2017-01-19T06:15:57.786Z,0
2017-01-19T06:17:08.461Z,0
2017-01-19T06:18:19.138Z,0
2017-01-19T06:19:29.824Z,0
2017-01-19T06:20:39.721Z,0
2017-01-19T06:21:50.018Z,0
2017-01-19T06:23:00.312Z,0
2017-01-19T06:24:09.823Z,0
2017-01-19T06:25:19.717Z,0
2017-01-19T06:26:30.000Z,0
2017-01-19T06:27:39.892Z,0
2017-01-19T06:28:49.796Z,0
2017-01-19T06:30:00.471Z,0
2017-01-19T06:31:10.757Z,0
2017-01-19T06:32:21.044Z,0
2017-01-19T06:33:30.930Z,0
2017-01-19T06:34:41.616Z,0
2017-01-19T06:35:51.514Z,0
2017-01-19T06:37:01.018Z,0
2017-01-19T06:38:10.911Z,0
2017-01-19T06:39:21.207Z,0
2017-01-19T06:40:31.098Z,0
2017-01-19T06:41:41.000Z,0
2017-01-19T06:42:51.294Z,0
2017-01-19T06:44:00.809Z,0
2017-01-19T06:45:09.922Z,0
2017-01-19T06:46:20.202Z,0
2017-01-19T06:47:30.093Z,0
2017-01-19T06:48:40.391Z,0
2017-01-19T06:49:50.281Z,0
2017-01-19T06:51:00.601Z,0
2017-01-19T06:52:10.107Z,0
2017-01-19T06:53:20.466Z,0
2017-01-19T06:54:30.768Z,0
2017-01-19T06:55:41.446Z,0
2017-01-19T06:56:51.738Z,0
2017-01-19T06:58:02.021Z,0
2017-01-19T06:59:12.958Z,0
2017-01-19T07:00:22.843Z,0
2017-01-19T07:01:33.517Z,0
2017-01-19T07:02:43.430Z,0
2017-01-19T07:03:54.116Z,0
2017-01-19T07:05:04.429Z,0
2017-01-19T07:06:15.130Z,0
2017-01-19T07:07:25.838Z,0
2017-01-19T07:08:36.141Z,0
2017-01-19T07:09:46.462Z,0
2017-01-19T07:10:56.824Z,0
2017-01-19T07:12:06.734Z,0
2017-01-19T07:13:16.642Z,0
2017-01-19T07:14:26.985Z,0
2017-01-19T07:15:37.901Z,0
2017-01-19T07:16:48.226Z,0
2017-01-19T07:17:58.564Z,0
2017-01-19T07:19:08.876Z,0
2017-01-19T07:20:18.806Z,0
2017-01-19T07:21:28.759Z,0
2017-01-19T07:22:38.299Z,0
2017-01-19T07:23:48.987Z,0
2017-01-19T07:24:58.912Z,0
2017-01-19T07:26:09.610Z,5
2017-01-19T07:27:19.916Z,5
2017-01-19T07:28:30.606Z,5
2017-01-19T07:29:41.316Z,5
2017-01-19T07:30:51.607Z,5
2017-01-19T07:32:02.310Z,5
2017-01-19T07:33:12.608Z,5
2017-01-19T07:34:22.506Z,5
2017-01-19T07:35:32.822Z,5
2017-01-19T07:36:42.745Z,5
2017-01-19T07:37:52.656Z,5
2017-01-19T07:39:03.207Z,5
2017-01-19T07:40:13.938Z,5
2017-01-19T07:41:24.627Z,5
2017-01-19T07:42:34.947Z,5
2017-01-19T07:43:44.839Z,5
2017-01-19T07:44:54.351Z,5
2017-01-19T07:46:04.908Z,5
2017-01-19T07:47:15.618Z,5
2017-01-19T07:48:25.918Z,5
2017-01-19T07:49:36.596Z,10
2017-01-19T07:50:46.888Z,10
2017-01-19T07:51:56.866Z,10
2017-01-19T07:53:07.588Z,10
2017-01-19T07:54:17.892Z,10
2017-01-19T07:55:28.227Z,10
2017-01-19T07:56:37.995Z,10
2017-01-19T07:57:48.713Z,10
2017-01-19T07:58:59.414Z,10
2017-01-19T08:00:09.710Z,10
2017-01-19T08:01:19.613Z,10
2017-01-19T08:02:29.549Z,10
2017-01-19T08:03:39.516Z,10
2017-01-19T08:04:49.855Z,10
2017-01-19T08:06:00.203Z,10
2017-01-19T08:07:10.548Z,15
2017-01-19T08:08:20.869Z,15
2017-01-19T08:09:30.779Z,15
2017-01-19T08:10:40.369Z,15
2017-01-19T08:11:50.736Z,15
2017-01-19T08:13:01.425Z,15
2017-01-19T08:14:11.771Z,15
2017-01-19T08:15:22.110Z,15
2017-01-19T08:16:32.828Z,15
2017-01-19T08:17:43.593Z,15
2017-01-19T08:18:53.512Z,15
2017-01-19T08:20:03.810Z,15
2017-01-19T08:21:14.131Z,15
2017-01-19T08:22:24.030Z,15
2017-01-19T08:23:34.334Z,15
2017-01-19T08:24:44.335Z,15
2017-01-19T08:25:55.159Z,15
2017-01-19T08:27:05.876Z,15
2017-01-19T08:28:16.884Z,20
2017-01-19T08:29:27.606Z,20
2017-01-19T08:30:37.536Z,20
2017-01-19T08:31:47.481Z,20
2017-01-19T08:32:57.796Z,20
2017-01-19T08:34:08.105Z,20
2017-01-19T08:35:18.703Z,20
2017-01-19T08:36:28.994Z,20
2017-01-19T08:37:39.686Z,20
2017-01-19T08:38:50.406Z,20
2017-01-19T08:40:00.745Z,20
2017-01-19T08:41:11.445Z,25
2017-01-19T08:42:22.163Z,25
2017-01-19T08:43:32.109Z,25
2017-01-19T08:44:42.814Z,25
2017-01-19T08:45:53.494Z,25
2017-01-19T08:47:04.205Z,25
2017-01-19T08:48:14.892Z,25
2017-01-19T08:49:25.190Z,25
2017-01-19T08:50:35.117Z,25
2017-01-19T08:51:44.627Z,25
2017-01-19T08:52:54.614Z,30
2017-01-19T08:54:05.329Z,30
2017-01-19T08:55:15.634Z,30
2017-01-19T08:56:26.382Z,30
2017-01-19T08:57:36.710Z,30
2017-01-19T08:58:47.409Z,30
2017-01-19T08:59:57.753Z,30
2017-01-19T09:01:07.655Z,30
2017-01-19T09:02:17.986Z,35
2017-01-19T09:03:27.950Z,35
2017-01-19T09:04:38.321Z,35
2017-01-19T09:05:48.837Z,35
2017-01-19T09:06:58.593Z,35
2017-01-19T09:08:08.513Z,35
2017-01-19T09:09:19.235Z,35
2017-01-19T09:10:29.987Z,35
2017-01-19T09:11:40.295Z,40
2017-01-19T09:12:50.984Z,40
2017-01-19T09:14:00.871Z,40
2017-01-19T09:15:11.169Z,40
2017-01-19T09:16:21.067Z,40
2017-01-19T09:17:31.368Z,40
2017-01-19T09:18:40.874Z,40
2017-01-19T09:19:51.580Z,40
2017-01-19T09:21:01.107Z,40
2017-01-19T09:22:11.409Z,40
2017-01-19T09:23:22.139Z,40
2017-01-19T09:24:32.441Z,40
2017-01-19T09:25:42.357Z,40
2017-01-19T09:26:52.263Z,40
2017-01-19T09:28:02.588Z,35
2017-01-19T09:29:13.269Z,40
2017-01-19T09:30:23.560Z,40
2017-01-19T09:31:33.464Z,40
2017-01-19T09:32:43.380Z,35
2017-01-19T09:33:53.683Z,35
2017-01-19T09:35:03.982Z,35
2017-01-19T09:36:13.486Z,35
2017-01-19T09:37:25.379Z,35
2017-01-19T09:38:34.893Z,35
2017-01-19T09:39:45.180Z,35
2017-01-19T09:40:55.080Z,35
2017-01-19T09:42:04.988Z,35
2017-01-19T09:43:14.891Z,35
2017-01-19T09:44:25.188Z,35
2017-01-19T09:45:35.488Z,35
2017-01-19T09:46:46.195Z,35
2017-01-19T09:47:56.102Z,35
2017-01-19T09:49:06.800Z,35
2017-01-19T09:50:16.301Z,35
2017-01-19T09:51:25.421Z,35
2017-01-19T09:52:35.334Z,35
2017-01-19T09:53:45.654Z,35
2017-01-19T09:54:55.565Z,35
2017-01-19T09:56:05.087Z,35
2017-01-19T09:57:15.002Z,35
2017-01-19T09:58:24.909Z,35
2017-01-19T09:59:34.863Z,35
2017-01-19T10:00:45.162Z,35
2017-01-19T10:01:55.068Z,35
2017-01-19T10:03:05.413Z,35
2017-01-19T10:04:16.137Z,35
2017-01-19T10:05:26.071Z,35
2017-01-19T10:06:36.429Z,35
2017-01-19T10:07:46.348Z,40
2017-01-19T10:08:57.069Z,40
2017-01-19T10:10:07.809Z,40
2017-01-19T10:11:18.131Z,40
2017-01-19T10:12:28.431Z,40
2017-01-19T10:13:38.748Z,40
2017-01-19T10:14:49.089Z,40
2017-01-19T10:15:59.591Z,40
2017-01-19T10:17:10.292Z,40
2017-01-19T10:18:20.877Z,40
2017-01-19T10:19:30.379Z,35
2017-01-19T10:20:40.293Z,35
2017-01-19T10:21:50.989Z,35
2017-01-19T10:23:00.890Z,35
2017-01-19T10:24:11.184Z,35
2017-01-19T10:25:21.870Z,35
2017-01-19T10:26:31.774Z,35
2017-01-19T10:27:41.675Z,35
2017-01-19T10:28:51.630Z,35
2017-01-19T10:30:01.173Z,40
2017-01-19T10:31:11.058Z,40
2017-01-19T10:32:21.748Z,40
2017-01-19T10:33:32.058Z,40
2017-01-19T10:34:42.778Z,40
2017-01-19T10:35:53.085Z,40
2017-01-19T10:37:03.399Z,40
2017-01-19T10:38:13.730Z,40
2017-01-19T10:39:24.429Z,40
2017-01-19T10:40:34.742Z,40
2017-01-19T10:41:45.042Z,40
2017-01-19T10:42:54.943Z,40
2017-01-19T10:44:05.656Z,40
2017-01-19T10:45:16.190Z,40
2017-01-19T10:46:26.480Z,40
2017-01-19T10:47:37.189Z,40
2017-01-19T10:48:47.486Z,40
2017-01-19T10:49:58.198Z,40
2017-01-19T10:51:08.561Z,40
2017-01-19T10:52:19.247Z,40
2017-01-19T10:53:29.570Z,40
2017-01-19T10:54:39.476Z,40
2017-01-19T10:55:50.184Z,40
2017-01-19T10:57:00.078Z,40
2017-01-19T10:58:10.939Z,40
2017-01-19T10:59:21.300Z,40
2017-01-19T11:00:31.259Z,40
2017-01-19T11:01:42.036Z,40
2017-01-19T11:02:51.948Z,40
2017-01-19T11:04:02.660Z,40
2017-01-19T11:05:13.369Z,40
2017-01-19T11:06:24.069Z,40
2017-01-19T11:07:34.780Z,40
2017-01-19T11:08:44.688Z,40
2017-01-19T11:09:55.667Z,40
2017-01-19T11:11:06.378Z,40
2017-01-19T11:12:17.076Z,40
2017-01-19T11:13:27.778Z,40
2017-01-19T11:14:38.144Z,40
2017-01-19T11:15:48.860Z,40
2017-01-19T11:16:58.787Z,40
2017-01-19T11:18:09.084Z,40
2017-01-19T11:19:19.532Z,40
2017-01-19T11:20:29.854Z,40
2017-01-19T11:21:40.587Z,40
2017-01-19T11:22:51.316Z,40
2017-01-19T11:24:01.633Z,40
2017-01-19T11:25:12.367Z,40
2017-01-19T11:26:22.329Z,40
2017-01-19T11:27:32.232Z,40
2017-01-19T11:28:42.534Z,40
2017-01-19T11:29:53.229Z,40
2017-01-19T11:31:03.942Z,40
2017-01-19T11:32:14.664Z,40
2017-01-19T11:33:24.576Z,40
2017-01-19T11:34:34.504Z,40
2017-01-19T11:35:45.237Z,40
2017-01-19T11:36:55.576Z,40
2017-01-19T11:38:05.094Z,40
2017-01-19T11:39:15.397Z,40
2017-01-19T11:40:24.906Z,40
2017-01-19T11:41:35.601Z,40
2017-01-19T11:42:45.121Z,40
2017-01-19T11:43:55.411Z,40
2017-01-19T11:45:05.718Z,40
2017-01-19T11:46:16.009Z,40
2017-01-19T11:47:25.934Z,40
2017-01-19T11:48:36.619Z,40
2017-01-19T11:49:47.299Z,40
2017-01-19T11:50:58.026Z,40
2017-01-19T11:52:08.329Z,40
2017-01-19T11:53:19.006Z,40
2017-01-19T11:54:29.314Z,40
2017-01-19T11:55:39.619Z,40
2017-01-19T11:56:50.302Z,40
2017-01-19T11:58:00.591Z,40
2017-01-19T11:59:10.124Z,40
2017-01-19T12:00:20.027Z,40
2017-01-19T12:01:30.314Z,35
2017-01-19T12:02:39.809Z,35
2017-01-19T12:03:50.114Z,35
2017-01-19T12:05:00.410Z,35
2017-01-19T12:06:09.902Z,35
2017-01-19T12:07:20.624Z,35
2017-01-19T12:08:30.926Z,35
2017-01-19T12:09:40.845Z,35
2017-01-19T12:10:51.178Z,35
2017-01-19T12:12:01.557Z,35
2017-01-19T12:13:12.273Z,35
2017-01-19T12:14:22.956Z,35
2017-01-19T12:15:33.265Z,35
2017-01-19T12:16:43.969Z,35
2017-01-19T12:17:54.304Z,35
2017-01-19T12:19:04.596Z,35
2017-01-19T12:20:14.915Z,35
2017-01-19T12:21:25.612Z,35
2017-01-19T12:22:35.925Z,35
2017-01-19T12:23:46.253Z,35
2017-01-19T12:24:56.936Z,35
2017-01-19T12:26:07.651Z,35
2017-01-19T12:27:17.558Z,35
2017-01-19T12:28:27.455Z,35
2017-01-19T12:29:37.788Z,35
2017-01-19T12:30:47.684Z,35
2017-01-19T12:31:57.987Z,35
2017-01-19T12:33:07.494Z,35
2017-01-19T12:34:17.402Z,35
2017-01-19T12:35:28.110Z,30
2017-01-19T12:36:38.829Z,30
2017-01-19T12:37:49.526Z,30
2017-01-19T12:38:59.841Z,30
2017-01-19T12:40:10.126Z,30
2017-01-19T12:41:20.308Z,30
2017-01-19T12:42:30.597Z,30
2017-01-19T12:43:40.889Z,30
2017-01-19T12:44:51.203Z,30
2017-01-19T12:46:01.110Z,30
2017-01-19T12:47:11.406Z,30
2017-01-19T12:48:22.114Z,30
2017-01-19T12:49:32.418Z,30
2017-01-19T12:50:43.093Z,30
2017-01-19T12:51:52.987Z,30
2017-01-19T12:53:03.311Z,30
2017-01-19T12:54:13.219Z,30
2017-01-19T12:55:23.579Z,30
2017-01-19T12:56:33.892Z,30
2017-01-19T12:57:44.185Z,30
2017-01-19T12:58:54.579Z,30
2017-01-19T13:00:04.899Z,30
2017-01-19T13:01:15.210Z,30
2017-01-19T13:02:25.506Z,30
2017-01-19T13:03:35.053Z,30
2017-01-19T13:04:45.373Z,30
2017-01-19T13:05:56.054Z,30
2017-01-19T13:07:06.739Z,30
2017-01-19T13:08:17.039Z,30
2017-01-19T13:09:27.615Z,30
2017-01-19T13:10:37.915Z,30
2017-01-19T13:11:48.239Z,30
2017-01-19T13:12:58.942Z,30
2017-01-19T13:14:09.636Z,25
2017-01-19T13:15:20.355Z,25
2017-01-19T13:16:30.728Z,25
2017-01-19T13:17:41.058Z,25
2017-01-19T13:18:51.362Z,25
2017-01-19T13:20:00.877Z,25
2017-01-19T13:21:10.400Z,25
2017-01-19T13:22:20.313Z,25
2017-01-19T13:23:30.627Z,25
2017-01-19T13:24:40.923Z,25
2017-01-19T13:25:51.621Z,25
2017-01-19T13:27:01.908Z,25
2017-01-19T13:28:11.802Z,25
2017-01-19T13:29:22.118Z,25
2017-01-19T13:30:32.812Z,25
2017-01-19T13:31:42.723Z,25
2017-01-19T13:32:52.622Z,20
2017-01-19T13:34:03.322Z,25
2017-01-19T13:35:13.630Z,25
2017-01-19T13:36:23.527Z,20
2017-01-19T13:37:33.806Z,20
2017-01-19T13:38:44.117Z,20
2017-01-19T13:39:54.326Z,20
2017-01-19T13:41:04.468Z,20
2017-01-19T13:42:14.768Z,20
2017-01-19T13:43:25.052Z,20
2017-01-19T13:44:34.956Z,20
2017-01-19T13:45:44.840Z,20
2017-01-19T13:46:55.529Z,20
2017-01-19T13:48:06.076Z,20
2017-01-19T13:49:16.789Z,20
2017-01-19T13:50:27.483Z,20
2017-01-19T13:51:37.399Z,20
2017-01-19T13:52:47.706Z,20
2017-01-19T13:53:58.442Z,20
2017-01-19T13:55:09.145Z,20
2017-01-19T13:56:19.895Z,20
2017-01-19T13:57:30.801Z,20
2017-01-19T13:58:41.092Z,20
2017-01-19T13:59:51.405Z,20
2017-01-19T14:01:02.105Z,15
2017-01-19T14:02:12.424Z,15
2017-01-19T14:03:23.134Z,15
2017-01-19T14:04:33.823Z,15
2017-01-19T14:05:44.514Z,15
2017-01-19T14:06:54.818Z,15
2017-01-19T14:08:05.120Z,15
2017-01-19T14:09:14.629Z,15
2017-01-19T14:10:24.533Z,15
2017-01-19T14:11:34.458Z,15
2017-01-19T14:12:44.601Z,15
2017-01-19T14:13:54.492Z,15
2017-01-19T14:15:04.795Z,15
2017-01-19T14:16:15.103Z,15
2017-01-19T14:17:25.792Z,15
2017-01-19T14:18:36.092Z,15
2017-01-19T14:19:46.788Z,15
2017-01-19T14:20:57.493Z,15
2017-01-19T14:22:08.305Z,10
2017-01-19T14:23:18.603Z,10
2017-01-19T14:24:28.922Z,10
2017-01-19T14:25:39.220Z,10
2017-01-19T14:26:49.914Z,10
2017-01-19T14:28:00.242Z,10
2017-01-19T14:29:10.941Z,10
2017-01-19T14:30:20.844Z,10
2017-01-19T14:31:30.358Z,10
2017-01-19T14:32:40.270Z,10
2017-01-19T14:33:50.567Z,10
2017-01-19T14:35:01.243Z,10
2017-01-19T14:36:11.532Z,10
2017-01-19T14:37:22.225Z,10
2017-01-19T14:38:32.129Z,10
2017-01-19T14:39:42.028Z,10
2017-01-19T14:40:51.928Z,10
2017-01-19T14:42:02.239Z,10
2017-01-19T14:43:11.360Z,10
2017-01-19T14:44:22.077Z,10
2017-01-19T14:45:32.783Z,10
2017-01-19T14:46:43.073Z,5
2017-01-19T14:47:53.386Z,5
2017-01-19T14:49:03.687Z,5
2017-01-19T14:50:13.590Z,5
2017-01-19T14:51:23.890Z,5
2017-01-19T14:52:34.625Z,5
2017-01-19T14:53:44.929Z,5
2017-01-19T14:54:55.255Z,5
2017-01-19T14:56:05.555Z,5
2017-01-19T14:57:15.063Z,5
2017-01-19T14:58:25.356Z,5
2017-01-19T14:59:34.884Z,5
2017-01-19T15:00:44.781Z,5
2017-01-19T15:01:55.099Z,5
2017-01-19T15:03:05.399Z,5
2017-01-19T15:04:16.097Z,5
2017-01-19T15:05:26.400Z,5
2017-01-19T15:06:36.343Z,5
2017-01-19T15:07:46.641Z,5
2017-01-19T15:08:56.533Z,0
2017-01-19T15:10:06.840Z,0
2017-01-19T15:11:17.148Z,0
2017-01-19T15:12:27.672Z,0
2017-01-19T15:13:38.371Z,0
2017-01-19T15:14:48.663Z,0
2017-01-19T15:15:58.576Z,0
2017-01-19T15:17:08.496Z,0
2017-01-19T15:18:19.189Z,0
2017-01-19T15:19:29.886Z,0
2017-01-19T15:20:39.812Z,0
2017-01-19T15:21:49.712Z,0
2017-01-19T15:22:59.214Z,0
2017-01-19T15:24:09.518Z,0
2017-01-19T15:25:19.474Z,0
2017-01-19T15:26:28.973Z,0
2017-01-19T15:27:38.882Z,0
2017-01-19T15:28:49.191Z,0
2017-01-19T15:29:59.498Z,0
2017-01-19T15:31:09.409Z,0
2017-01-19T15:32:20.110Z,0
2017-01-19T15:33:30.415Z,0
2017-01-19T15:34:39.928Z,0
2017-01-19T15:35:50.235Z,0
2017-01-19T15:37:00.549Z,0
2017-01-19T15:38:11.268Z,0
2017-01-19T15:39:21.567Z,0
2017-01-19T15:40:31.883Z,0
2017-01-19T15:41:41.852Z,0
2017-01-19T15:42:51.804Z,0
2017-01-19T15:44:02.498Z,0
2017-01-19T15:45:12.806Z,0
2017-01-19T15:46:22.704Z,0
2017-01-19T15:47:32.216Z,0
2017-01-19T15:48:42.531Z,0
2017-01-19T15:49:52.440Z,0
2017-01-19T15:51:02.742Z,0
2017-01-19T15:52:12.645Z,0
2017-01-19T15:53:22.169Z,0
2017-01-19T15:54:32.874Z,0
2017-01-19T15:55:43.189Z,0
2017-01-19T15:56:53.915Z,0
2017-01-19T15:58:04.217Z,0
2017-01-19T15:59:14.903Z,0
2017-01-19T16:00:25.225Z,0
2017-01-19T16:01:35.525Z,0
2017-01-19T16:02:45.050Z,0
2017-01-19T16:03:54.972Z,0
2017-01-19T16:05:04.501Z,0
2017-01-19T16:06:14.429Z,0
2017-01-19T16:07:24.723Z,0
2017-01-19T16:08:34.636Z,0
2017-01-19T16:09:44.926Z,0
2017-01-19T16:10:55.637Z,0
2017-01-19T16:12:05.939Z,0
2017-01-19T16:13:16.646Z,0
2017-01-19T16:14:26.959Z,0
2017-01-19T16:15:37.287Z,0
2017-01-19T16:16:47.976Z,0
2017-01-19T16:17:58.683Z,0
2017-01-19T16:19:09.397Z,0
2017-01-19T16:20:19.723Z,0
2017-01-19T16:21:30.045Z,0
2017-01-19T16:22:40.780Z,0
2017-01-19T16:23:51.115Z,0
2017-01-19T16:25:01.036Z,0
2017-01-19T16:26:11.772Z,0
2017-01-19T16:27:22.516Z,0
2017-01-19T16:28:32.454Z,0
2017-01-19T16:29:43.186Z,0
2017-01-19T16:30:53.523Z,0
2017-01-19T16:32:04.263Z,0
2017-01-19T16:33:14.590Z,0
2017-01-19T16:34:24.958Z,0
2017-01-19T16:35:35.696Z,0
2017-01-19T16:36:46.038Z,0
2017-01-19T16:37:56.354Z,0
2017-01-19T16:39:06.659Z,0
2017-01-19T16:40:16.976Z,0
2017-01-19T16:41:27.727Z,0
2017-01-19T16:42:37.664Z,0
2017-01-19T16:43:48.408Z,0
2017-01-19T16:44:58.767Z,0
2017-01-19T16:46:09.538Z,0
2017-01-19T16:47:20.264Z,0
2017-01-19T16:48:29.810Z,0
2017-01-19T16:49:40.538Z,0
2017-01-19T16:50:51.280Z,0
2017-01-19T16:52:01.848Z,0
2017-01-19T16:53:12.171Z,0
2017-01-19T16:54:22.914Z,0
2017-01-19T16:55:33.639Z,0
2017-01-19T16:56:43.994Z,0
2017-01-19T16:57:54.752Z,0
2017-01-19T16:59:05.469Z,0
2017-01-19T17:00:16.193Z,0
2017-01-19T17:01:26.912Z,0
2017-01-19T17:02:37.642Z,0